الصفحة الرئيسية
METAR-TAF:

METAR-TAF

مطار :

Livingstone, زامبيا

دائرة عرض: 17-49-18S, خط طول: 025-49-22E, ارتفاع: 991 متر

مراقبة الطقس الحالي

تاريخ ووقت الإصدار 5ساعات و 10 دقيقة قبل الساعة 13:00UTC
ريح 2 عقدة من الشرق
درجة الحرارة 34°درجة مئوية
الرطوبة 30%
ضغط 1015 hPa
الرؤية 10 كم أو أكثر
الغيوم لا تقل 1500 م ولا وجود لمزنة ركامية السحاب الأسود

METAR: FLHN 141300Z 08002KT CAVOK 34/14 Q1015

زمن: 20:10 (18:10 UTC)


TAF: مفقودة

أرصاد الطقس والتوقعات من أكثر من 4000 مطار (تقارير الطقس للمطار METAR والتنبؤ بالطقس بالمطارTAF).

المحطات المتاحة هي النقط الصفراء والحمراء على الخريطة.

حرك المؤشر فوق النقطة لمعرفة اسم المحطة.

ثم انقر لمعرفة أرصاد وتوقعات الطقس.

لتغيير الخارطة: اضغط على الأزرار الخضراء مع رمز الصليب الأسود للتكبير. على الزر الأخضر مع شرطة للتصغير، أو على الأسهم الخضراء للخرائط المجاورة.


METAR-TAF: